Lydd, United Kingdom
Current Conditions -  °F | °C
As of 3:50 PM on Thursday 23 Oct 2014 (Local Time) from EGMD Reporting Station
Light Rain Light Rain  
Wind Chill: 59°   Ceiling: 1600
Heat Index: 59°   Visibility: 4mi
Dew Point: 57°   Wind: 18mph
Humidity: 94%   Direction: 230°SW
Pressure: 30.12"   Gusts: NA
Location:  50.95°N, 0.91°E
Report Text: EGMD 231450Z 23016KT 6000 -RADZ SCT009 BKN016 15/14 Q1020
Loading
Personal Weather Stations






























Interactive Weather Map
Tropical Storm Tracking
New forecast layout! Learn more

10-Day Weather Forecast

Advertisements
Track Severe Weather on mobile